| time (UTC) | temp F | wind direction | speed MPH | gust MPH | rain 1hr in | rain 24hr in | rain mn in | humidity % | barometer mb |
| 20260508023159 | 48 | 168 | 1.0 | 1.0 | 0.00 | 0.01 | 0.01 | 69 | 977.6 |
| 20260508022655 | 46 | 186 | 2.0 | 3.0 | 0.00 | 0.01 | 0.01 | 82 | 977.5 |
| 20260508022152 | 46 | 105 | 2.0 | 2.0 | 0.00 | 0.01 | 0.01 | 80 | 977.6 |
| 20260508021648 | 47 | 178 | 4.0 | 4.0 | 0.00 | 0.01 | 0.01 | 82 | 977.6 |
| 20260508021143 | 47 | 152 | 2.0 | 3.0 | 0.00 | 0.01 | 0.01 | 81 | 977.4 |
| 20260508020642 | 47 | 181 | 4.0 | 4.0 | 0.00 | 0.01 | 0.01 | 77 | 977.4 |
| 20260508020139 | 49 | 176 | 3.0 | 3.0 | 0.00 | 0.01 | 0.01 | 79 | 977.3 |
| 20260508015636 | 47 | 178 | 3.0 | 4.0 | 0.00 | 0.01 | 0.01 | 80 | 977.3 |
| 20260508015133 | 48 | 185 | 5.0 | 6.0 | 0.00 | 0.01 | 0.01 | 80 | 977.3 |
| 20260508014630 | 48 | 171 | 3.0 | 3.0 | 0.00 | 0.01 | 0.01 | 80 | 977.3 |
| 20260508014126 | 50 | 181 | 3.0 | 3.0 | 0.00 | 0.01 | 0.01 | 66 | 977.1 |
| 20260508013622 | 50 | 168 | 3.0 | 4.0 | 0.00 | 0.01 | 0.01 | 72 | 977.0 |
| 20260508013119 | 52 | 174 | 4.0 | 4.0 | 0.00 | 0.01 | 0.01 | 74 | 977.0 |
| 20260508012617 | 53 | 176 | 4.0 | 4.0 | 0.00 | 0.01 | 0.01 | 59 | 977.0 |
| 20260508012114 | 55 | 177 | 3.0 | 3.0 | 0.00 | 0.01 | 0.01 | 53 | 976.8 |
| 20260508011612 | 55 | 168 | 4.0 | 4.0 | 0.00 | 0.01 | 0.01 | 53 | 976.7 |
| 20260508011109 | 54 | 170 | 6.0 | 7.0 | 0.00 | 0.01 | 0.01 | 55 | 976.8 |
| 20260508010606 | 53 | 143 | 2.0 | 2.0 | 0.00 | 0.01 | 0.01 | 58 | 976.6 |
| 20260508010104 | 55 | 178 | 2.0 | 3.0 | 0.00 | 0.01 | 0.01 | 53 | 976.5 |
| 20260508005600 | 55 | 229 | 2.0 | 3.0 | 0.00 | 0.01 | 0.01 | 50 | 976.5 |
| 20260508005056 | 56 | 182 | 3.0 | 3.0 | 0.00 | 0.01 | 0.01 | 51 | 976.4 |
| 20260508004552 | 56 | 182 | 4.0 | 4.0 | 0.00 | 0.01 | 0.01 | 50 | 976.4 |
| 20260508004049 | 56 | 182 | 4.0 | 4.0 | 0.00 | 0.01 | 0.01 | 50 | 976.3 |
| 20260508003546 | 57 | 110 | 4.0 | 4.0 | 0.00 | 0.01 | 0.01 | 50 | 976.2 |
| 20260508003043 | 57 | 179 | 3.0 | 3.0 | 0.00 | 0.01 | 0.01 | 48 | 976.1 |
| 20260508002539 | 57 | 194 | 10.0 | 14.0 | 0.00 | 0.01 | 0.01 | 47 | 975.8 |
| 20260508002037 | 57 | 174 | 1.0 | 2.0 | 0.00 | 0.01 | 0.01 | 48 | 975.8 |
| 20260508001532 | 57 | 187 | 5.0 | 6.0 | 0.00 | 0.01 | 0.01 | 46 | 976.0 |
| 20260508001029 | 58 | 204 | 5.0 | 7.0 | 0.00 | 0.01 | 0.01 | 46 | 975.7 |
| 20260508000525 | 58 | 193 | 6.0 | 8.0 | 0.00 | 0.01 | 0.01 | 45 | 975.5 |
| 20260508000023 | 59 | 182 | 4.0 | 4.0 | 0.00 | 0.01 | 0.01 | 45 | 975.6 |
| 20260507235519 | 59 | 197 | 1.0 | 2.0 | 0.00 | 0.01 | 0.01 | 45 | 975.4 |
| 20260507235016 | 59 | 187 | 5.0 | 8.0 | 0.00 | 0.01 | 0.01 | 44 | 975.3 |
| 20260507234513 | 59 | 169 | 4.0 | 6.0 | 0.00 | 0.01 | 0.01 | 47 | 975.3 |
| 20260507234009 | 59 | 179 | 2.0 | 3.0 | 0.00 | 0.01 | 0.01 | 47 | 975.3 |
| 20260507233506 | 60 | 186 | 5.0 | 7.0 | 0.00 | 0.01 | 0.01 | 47 | 975.3 |
| 20260507233005 | 59 | 183 | 4.0 | 4.0 | 0.00 | 0.01 | 0.01 | 48 | 975.0 |
| 20260507232500 | 60 | 186 | 3.0 | 3.0 | 0.00 | 0.01 | 0.01 | 49 | 975.1 |
| 20260507231958 | 60 | 194 | 1.0 | 2.0 | 0.00 | 0.01 | 0.01 | 47 | 975.0 |
| 20260507231454 | 61 | 186 | 8.0 | 9.0 | 0.00 | 0.01 | 0.01 | 46 | 974.7 |
| 20260507230951 | 61 | 197 | 3.0 | 3.0 | 0.00 | 0.01 | 0.01 | 45 | 974.6 |
| 20260507230448 | 62 | 190 | 7.0 | 9.0 | 0.00 | 0.01 | 0.01 | 45 | 974.5 |
| 20260507225943 | 62 | 208 | 5.0 | 7.0 | 0.00 | 0.01 | 0.01 | 46 | 974.6 |
| 20260507225440 | 62 | 25 | 6.0 | 9.0 | 0.00 | 0.01 | 0.01 | 44 | 974.4 |
| 20260507224936 | 62 | 200 | 10.0 | 10.0 | 0.00 | 0.01 | 0.01 | 46 | 974.3 |
| 20260507224432 | 62 | 176 | 6.0 | 7.0 | 0.00 | 0.01 | 0.01 | 46 | 974.2 |
| 20260507223929 | 62 | 199 | 6.0 | 9.0 | 0.00 | 0.01 | 0.01 | 47 | 974.0 |
| 20260507223425 | 62 | 108 | 4.0 | 4.0 | 0.00 | 0.01 | 0.01 | 52 | 974.2 |
| 20260507222922 | 61 | 186 | 7.0 | 9.0 | 0.00 | 0.01 | 0.01 | 57 | 974.2 |
| 20260507222419 | 61 | 180 | 4.0 | 4.0 | 0.00 | 0.01 | 0.01 | 76 | 974.1 |
| 20260507221916 | 61 | 74 | 2.0 | 2.0 | 0.00 | 0.01 | 0.01 | 75 | 974.0 |
| 20260507221412 | 61 | 51 | 0.0 | 0.0 | 0.00 | 0.01 | 0.01 | 73 | 973.9 |
| 20260507220908 | 61 | 51 | 0.0 | 1.0 | 0.00 | 0.01 | 0.01 | 74 | 973.9 |
| 20260507220407 | 62 | 59 | 2.0 | 2.0 | 0.00 | 0.01 | 0.01 | 74 | 973.7 |
| 20260507215903 | 62 | 48 | 2.0 | 3.0 | 0.00 | 0.01 | 0.01 | 74 | 973.8 |
| 20260507215359 | 62 | 30 | 4.0 | 4.0 | 0.00 | 0.01 | 0.01 | 73 | 973.7 |
| 20260507214857 | 63 | 44 | 1.0 | 2.0 | 0.00 | 0.01 | 0.01 | 70 | 973.6 |
| 20260507214354 | 63 | 52 | 2.0 | 3.0 | 0.00 | 0.01 | 0.01 | 71 | 973.4 |
| 20260507213850 | 62 | 82 | 0.0 | 1.0 | 0.00 | 0.01 | 0.01 | 70 | 973.6 |
| 20260507213346 | 63 | 346 | 1.0 | 1.0 | 0.00 | 0.01 | 0.01 | 70 | 973.8 |
| 20260507212843 | 63 | 20 | 0.0 | 1.0 | 0.00 | 0.01 | 0.01 | 68 | 973.7 |
| 20260507212339 | 62 | 53 | 1.0 | 2.0 | 0.00 | 0.01 | 0.01 | 71 | 973.8 |
| 20260507211836 | 62 | 50 | 3.0 | 3.0 | 0.00 | 0.01 | 0.01 | 71 | 973.8 |
| 20260507211333 | 62 | 40 | 3.0 | 4.0 | 0.00 | 0.01 | 0.01 | 73 | 973.7 |
| 20260507210829 | 62 | 29 | 4.0 | 4.0 | 0.00 | 0.01 | 0.01 | 74 | 973.5 |
| 20260507210326 | 61 | 331 | 4.0 | 6.0 | 0.00 | 0.01 | 0.01 | 73 | 973.6 |
| 20260507205823 | 61 | 18 | 1.0 | 2.0 | 0.00 | 0.01 | 0.01 | 75 | 973.6 |
| 20260507205320 | 61 | 28 | 2.0 | 3.0 | 0.00 | 0.01 | 0.01 | 74 | 973.5 |
| 20260507204816 | 61 | 40 | 1.0 | 2.0 | 0.00 | 0.01 | 0.01 | 75 | 973.3 |
| 20260507204313 | 61 | 18 | 2.0 | 3.0 | 0.00 | 0.01 | 0.01 | 74 | 973.6 |
| 20260507203811 | 62 | 24 | 6.0 | 8.0 | 0.00 | 0.01 | 0.01 | 73 | 973.7 |
| 20260507203309 | 62 | 7 | 4.0 | 6.0 | 0.00 | 0.01 | 0.01 | 73 | 973.7 |
| 20260507202805 | 62 | 11 | 2.0 | 2.0 | 0.00 | 0.01 | 0.01 | 71 | 973.8 |
| 20260507202301 | 62 | 11 | 4.0 | 4.0 | 0.00 | 0.01 | 0.01 | 72 | 973.8 |
| 20260507201756 | 61 | 356 | 5.0 | 6.0 | 0.00 | 0.01 | 0.01 | 76 | 973.8 |
| 20260507201253 | 60 | 33 | 4.0 | 4.0 | 0.00 | 0.01 | 0.01 | 74 | 973.7 |
| 20260507200749 | 59 | 60 | 2.0 | 2.0 | 0.00 | 0.01 | 0.01 | 76 | 973.6 |
| 20260507200245 | 60 | 353 | 4.0 | 4.0 | 0.00 | 0.01 | 0.01 | 75 | 973.9 |
| 20260507195741 | 60 | 29 | 5.0 | 7.0 | 0.00 | 0.01 | 0.01 | 76 | 974.1 |
| 20260507195239 | 60 | 1 | 6.0 | 7.0 | 0.00 | 0.01 | 0.01 | 74 | 974.2 |
| 20260507194736 | 60 | 343 | 6.0 | 7.0 | 0.00 | 0.01 | 0.01 | 77 | 974.0 |
| 20260507194232 | 60 | 7 | 4.0 | 7.0 | 0.00 | 0.01 | 0.01 | 77 | 974.2 |
| 20260507193729 | 62 | 30 | 4.0 | 4.0 | 0.00 | 0.01 | 0.01 | 74 | 974.1 |
| 20260507193225 | 61 | 44 | 5.0 | 6.0 | 0.00 | 0.01 | 0.01 | 74 | 974.2 |
| 20260507192722 | 62 | 30 | 5.0 | 7.0 | 0.00 | 0.01 | 0.01 | 74 | 974.3 |
| 20260507192219 | 61 | 328 | 0.0 | 1.0 | 0.00 | 0.01 | 0.01 | 73 | 974.4 |
| 20260507191714 | 60 | 354 | 2.0 | 2.0 | 0.00 | 0.01 | 0.01 | 76 | 974.5 |
| 20260507191212 | 59 | 26 | 4.0 | 6.0 | 0.00 | 0.01 | 0.01 | 77 | 974.5 |
| 20260507190708 | 58 | 15 | 3.0 | 3.0 | 0.00 | 0.01 | 0.01 | 80 | 974.6 |
| 20260507190207 | 58 | 44 | 5.0 | 7.0 | 0.00 | 0.01 | 0.01 | 79 | 974.7 |
| 20260507185705 | 58 | 10 | 6.0 | 8.0 | 0.00 | 0.01 | 0.01 | 78 | 975.0 |
| 20260507185201 | 58 | 2 | 4.0 | 4.0 | 0.00 | 0.01 | 0.01 | 77 | 974.8 |
| 20260507184659 | 58 | 357 | 7.0 | 8.0 | 0.00 | 0.01 | 0.01 | 78 | 974.8 |
| 20260507184157 | 59 | 6 | 6.0 | 7.0 | 0.00 | 0.01 | 0.01 | 77 | 974.8 |
| 20260507183653 | 58 | 332 | 7.0 | 9.0 | 0.00 | 0.01 | 0.01 | 78 | 974.7 |
| 20260507183150 | 59 | 353 | 10.0 | 11.0 | 0.00 | 0.01 | 0.01 | 76 | 974.6 |
| 20260507182647 | 60 | 341 | 8.0 | 10.0 | 0.00 | 0.01 | 0.01 | 75 | 974.8 |
| 20260507182143 | 59 | 21 | 2.0 | 2.0 | 0.00 | 0.01 | 0.01 | 77 | 974.7 |
| 20260507181640 | 60 | 29 | 2.0 | 4.0 | 0.00 | 0.01 | 0.01 | 76 | 974.9 |
| 20260507181136 | 60 | 18 | 1.0 | 2.0 | 0.00 | 0.01 | 0.01 | 73 | 974.9 |
| 20260507180632 | 59 | 24 | 1.0 | 2.0 | 0.00 | 0.01 | 0.01 | 76 | 975.0 |
| 20260507180130 | 59 | 326 | 0.0 | 0.0 | 0.00 | 0.01 | 0.01 | 74 | 975.2 |
| 20260507175625 | 57 | 7 | 0.0 | 1.0 | 0.00 | 0.01 | 0.01 | 76 | 975.4 |
| 20260507175123 | 58 | 353 | 2.0 | 3.0 | 0.00 | 0.01 | 0.01 | 77 | 975.3 |
| 20260507174620 | 57 | 36 | 2.0 | 3.0 | 0.00 | 0.01 | 0.01 | 78 | 975.3 |
| 20260507174118 | 57 | 36 | 4.0 | 4.0 | 0.00 | 0.01 | 0.01 | 79 | 975.4 |
| 20260507173615 | 58 | 6 | 7.0 | 8.0 | 0.00 | 0.01 | 0.01 | 77 | 975.3 |
| 20260507173112 | 58 | 29 | 3.0 | 4.0 | 0.00 | 0.01 | 0.01 | 78 | 975.3 |
| 20260507172607 | 60 | 17 | 4.0 | 6.0 | 0.00 | 0.01 | 0.01 | 74 | 975.4 |
| 20260507172106 | 62 | 338 | 0.0 | 1.0 | 0.00 | 0.01 | 0.01 | 67 | 975.6 |
| 20260507171600 | 60 | 313 | 0.0 | 0.0 | 0.00 | 0.01 | 0.01 | 70 | 975.7 |
| 20260507171057 | 59 | 344 | 1.0 | 1.0 | 0.00 | 0.01 | 0.01 | 72 | 975.7 |
| 20260507170554 | 58 | 9 | 2.0 | 2.0 | 0.00 | 0.01 | 0.01 | 76 | 975.7 |
| 20260507170051 | 58 | 359 | 5.0 | 6.0 | 0.00 | 0.01 | 0.01 | 76 | 976.0 |
| 20260507165547 | 57 | 37 | 3.0 | 4.0 | 0.00 | 0.01 | 0.01 | 77 | 976.0 |
| 20260507165043 | 58 | 18 | 4.0 | 4.0 | 0.00 | 0.01 | 0.01 | 75 | 975.9 |
| 20260507164540 | 58 | 17 | 5.0 | 7.0 | 0.00 | 0.01 | 0.01 | 74 | 975.8 |
| 20260507164037 | 59 | 1 | 8.0 | 8.0 | 0.00 | 0.01 | 0.01 | 75 | 975.9 |
| 20260507163534 | 60 | 15 | 4.0 | 6.0 | 0.00 | 0.01 | 0.01 | 74 | 976.0 |
| 20260507163032 | 59 | 326 | 2.0 | 3.0 | 0.00 | 0.01 | 0.01 | 73 | 976.3 |
| 20260507162532 | 57 | 2 | 3.0 | 4.0 | 0.00 | 0.01 | 0.01 | 77 | 976.3 |
| 20260507162030 | 58 | 20 | 2.0 | 3.0 | 0.00 | 0.01 | 0.01 | 77 | 976.5 |
| 20260507161526 | 57 | 0 | 6.0 | 7.0 | 0.00 | 0.01 | 0.01 | 79 | 976.5 |
| 20260507161023 | 58 | 345 | 1.0 | 2.0 | 0.00 | 0.01 | 0.01 | 74 | 976.5 |
| 20260507160519 | 58 | 42 | 2.0 | 3.0 | 0.00 | 0.01 | 0.01 | 75 | 976.5 |
| 20260507160015 | 56 | 321 | 1.0 | 2.0 | 0.00 | 0.01 | 0.01 | 76 | 976.7 |
| 20260507155510 | 56 | 35 | 3.0 | 4.0 | 0.00 | 0.01 | 0.01 | 79 | 976.8 |
| 20260507155008 | 56 | 355 | 3.0 | 3.0 | 0.00 | 0.01 | 0.01 | 79 | 976.7 |
| 20260507154504 | 55 | 339 | 3.0 | 4.0 | 0.00 | 0.01 | 0.01 | 81 | 976.8 |
| 20260507154001 | 55 | 352 | 4.0 | 6.0 | 0.00 | 0.01 | 0.01 | 80 | 977.0 |
| 20260507153458 | 55 | 23 | 2.0 | 2.0 | 0.00 | 0.01 | 0.01 | 81 | 977.0 |
| 20260507152954 | 55 | 29 | 4.0 | 4.0 | 0.00 | 0.01 | 0.01 | 81 | 977.0 |
| 20260507152450 | 55 | 1 | 6.0 | 7.0 | 0.00 | 0.01 | 0.01 | 80 | 977.1 |
| 20260507151947 | 55 | 354 | 3.0 | 6.0 | 0.00 | 0.01 | 0.01 | 83 | 976.8 |
| 20260507151443 | 55 | 27 | 4.0 | 4.0 | 0.00 | 0.01 | 0.01 | 82 | 977.0 |
| 20260507150940 | 55 | 19 | 2.0 | 3.0 | 0.00 | 0.01 | 0.01 | 82 | 976.9 |
| 20260507150437 | 54 | 14 | 2.0 | 2.0 | 0.00 | 0.01 | 0.01 | 83 | 976.9 |
| 20260507145933 | 54 | 29 | 3.0 | 3.0 | 0.00 | 0.01 | 0.01 | 84 | 977.1 |
| 20260507145429 | 54 | 25 | 2.0 | 2.0 | 0.00 | 0.01 | 0.01 | 85 | 976.9 |
| 20260507144926 | 54 | 354 | 2.0 | 3.0 | 0.00 | 0.01 | 0.01 | 84 | 977.2 |
| 20260507144423 | 55 | 1 | 3.0 | 3.0 | 0.00 | 0.01 | 0.01 | 84 | 977.2 |
| 20260507143920 | 54 | 125 | 1.0 | 1.0 | 0.00 | 0.01 | 0.01 | 79 | 977.1 |
| 20260507143418 | 55 | 204 | 2.0 | 2.0 | 0.00 | 0.01 | 0.01 | 79 | 977.3 |
| 20260507142914 | 54 | 45 | 1.0 | 1.0 | 0.00 | 0.01 | 0.01 | 80 | 977.4 |
| 20260507142410 | 55 | 290 | 0.0 | 0.0 | 0.00 | 0.01 | 0.01 | 83 | 977.3 |
| 20260507141907 | 54 | 289 | 0.0 | 0.0 | 0.00 | 0.01 | 0.01 | 84 | 977.6 |
| 20260507141403 | 54 | 288 | 0.0 | 0.0 | 0.00 | 0.01 | 0.01 | 86 | 977.4 |
| 20260507140900 | 53 | 290 | 0.0 | 0.0 | 0.00 | 0.01 | 0.01 | 87 | 977.6 |
| 20260507140357 | 53 | 290 | 0.0 | 0.0 | 0.00 | 0.01 | 0.01 | 88 | 977.7 |
| 20260507135855 | 53 | 290 | 0.0 | 0.0 | 0.00 | 0.01 | 0.01 | 87 | 977.7 |
| 20260507135351 | 54 | 290 | 1.0 | 1.0 | 0.00 | 0.01 | 0.01 | 86 | 977.8 |
| 20260507134849 | 53 | 290 | 0.0 | 0.0 | 0.00 | 0.01 | 0.01 | 87 | 977.7 |
| 20260507134345 | 53 | 290 | 0.0 | 0.0 | 0.00 | 0.01 | 0.01 | 87 | 977.7 |
| 20260507133841 | 53 | 289 | 0.0 | 0.0 | 0.00 | 0.01 | 0.01 | 88 | 977.7 |
| 20260507133336 | 52 | 289 | 0.0 | 0.0 | 0.00 | 0.01 | 0.01 | 89 | 977.8 |
| 20260507132835 | 52 | 289 | 1.0 | 1.0 | 0.00 | 0.01 | 0.01 | 89 | 977.7 |
| 20260507132331 | 52 | 290 | 1.0 | 1.0 | 0.00 | 0.01 | 0.01 | 89 | 977.9 |
| 20260507131829 | 52 | 290 | 1.0 | 1.0 | 0.00 | 0.01 | 0.01 | 90 | 978.0 |
| 20260507131325 | 52 | 289 | 1.0 | 1.0 | 0.00 | 0.01 | 0.01 | 91 | 978.0 |
| 20260507130822 | 52 | 329 | 0.0 | 0.0 | 0.00 | 0.01 | 0.01 | 89 | 977.9 |
| 20260507130319 | 52 | 334 | 0.0 | 0.0 | 0.00 | 0.01 | 0.01 | 88 | 977.9 |
| 20260507125818 | 52 | 342 | 0.0 | 0.0 | 0.00 | 0.01 | 0.01 | 89 | 978.1 |
| 20260507125315 | 52 | 342 | 0.0 | 0.0 | 0.00 | 0.01 | 0.01 | 88 | 978.0 |
| 20260507124812 | 52 | 342 | 0.0 | 0.0 | 0.00 | 0.01 | 0.01 | 88 | 978.1 |
| 20260507124309 | 52 | 342 | 0.0 | 0.0 | 0.00 | 0.01 | 0.01 | 88 | 978.1 |
| 20260507123807 | 52 | 342 | 0.0 | 0.0 | 0.00 | 0.01 | 0.01 | 89 | 977.8 |
| 20260507123304 | 52 | 342 | 0.0 | 1.0 | 0.00 | 0.01 | 0.01 | 88 | 977.9 |
| 20260507122800 | 52 | 342 | 1.0 | 1.0 | 0.00 | 0.01 | 0.01 | 88 | 977.9 |
| 20260507122255 | 52 | 342 | 0.0 | 1.0 | 0.00 | 0.01 | 0.01 | 88 | 978.0 |
| 20260507121751 | 52 | 342 | 0.0 | 0.0 | 0.00 | 0.01 | 0.01 | 88 | 977.7 |
| 20260507121248 | 52 | 342 | 0.0 | 0.0 | 0.00 | 0.01 | 0.01 | 88 | 977.7 |
| 20260507120743 | 52 | 343 | 0.0 | 0.0 | 0.00 | 0.01 | 0.01 | 88 | 977.7 |
| 20260507120241 | 52 | 342 | 1.0 | 1.0 | 0.00 | 0.01 | 0.01 | 87 | 977.5 |
| 20260507115737 | 52 | 336 | 0.0 | 0.0 | 0.00 | 0.01 | 0.01 | 87 | 977.6 |
| 20260507115233 | 52 | 336 | 0.0 | 0.0 | 0.00 | 0.01 | 0.01 | 87 | 977.6 |
| 20260507114728 | 52 | 357 | 0.0 | 1.0 | 0.00 | 0.01 | 0.01 | 87 | 977.5 |
| 20260507114226 | 52 | 356 | 0.0 | 0.0 | 0.00 | 0.01 | 0.01 | 87 | 977.6 |
| 20260507113723 | 52 | 357 | 1.0 | 1.0 | 0.00 | 0.01 | 0.01 | 89 | 977.4 |
| 20260507113220 | 52 | 356 | 0.0 | 1.0 | 0.00 | 0.01 | 0.01 | 89 | 977.5 |
| 20260507112718 | 52 | 356 | 0.0 | 0.0 | 0.00 | 0.01 | 0.01 | 89 | 977.2 |
| 20260507112215 | 52 | 356 | 0.0 | 1.0 | 0.00 | 0.01 | 0.01 | 89 | 977.3 |
| 20260507111712 | 52 | 357 | 1.0 | 2.0 | 0.00 | 0.01 | 0.01 | 89 | 977.1 |
| 20260507111209 | 52 | 326 | 0.0 | 0.0 | 0.00 | 0.01 | 0.01 | 90 | 977.3 |
| 20260507110705 | 52 | 326 | 0.0 | 0.0 | 0.00 | 0.01 | 0.01 | 90 | 977.3 |
| 20260507110202 | 52 | 326 | 2.0 | 2.0 | 0.00 | 0.01 | 0.01 | 89 | 977.2 |
| 20260507105659 | 52 | 315 | 0.0 | 1.0 | 0.00 | 0.01 | 0.01 | 90 | 977.1 |
| 20260507105154 | 52 | 315 | 0.0 | 0.0 | 0.00 | 0.01 | 0.01 | 89 | 977.1 |
| 20260507104652 | 52 | 315 | 0.0 | 0.0 | 0.00 | 0.01 | 0.01 | 90 | 976.9 |
| 20260507104148 | 52 | 315 | 0.0 | 0.0 | 0.00 | 0.01 | 0.01 | 90 | 976.9 |
| 20260507103644 | 52 | 315 | 0.0 | 1.0 | 0.00 | 0.01 | 0.01 | 90 | 977.0 |
| 20260507103141 | 52 | 315 | 0.0 | 0.0 | 0.00 | 0.01 | 0.01 | 90 | 976.9 |
| 20260507102638 | 52 | 314 | 0.0 | 0.0 | 0.00 | 0.01 | 0.01 | 89 | 976.8 |
| 20260507102134 | 52 | 315 | 0.0 | 0.0 | 0.00 | 0.01 | 0.01 | 90 | 977.1 |
| 20260507101630 | 52 | 315 | 0.0 | 0.0 | 0.00 | 0.01 | 0.01 | 90 | 977.0 |
| 20260507101126 | 52 | 315 | 0.0 | 0.0 | 0.00 | 0.01 | 0.01 | 90 | 976.9 |
| 20260507100623 | 52 | 332 | 2.0 | 2.0 | 0.00 | 0.01 | 0.01 | 90 | 976.9 |
| 20260507100121 | 52 | 1 | 2.0 | 3.0 | 0.00 | 0.01 | 0.01 | 90 | 977.1 |
| 20260507095619 | 52 | 338 | 0.0 | 1.0 | 0.00 | 0.01 | 0.01 | 90 | 977.1 |
| 20260507095115 | 52 | 333 | 0.0 | 0.0 | 0.00 | 0.01 | 0.01 | 91 | 977.0 |
| 20260507094611 | 52 | 349 | 0.0 | 0.0 | 0.00 | 0.01 | 0.01 | 91 | 977.0 |
| 20260507094108 | 52 | 348 | 1.0 | 1.0 | 0.00 | 0.01 | 0.01 | 90 | 976.7 |
| 20260507093606 | 52 | 340 | 1.0 | 2.0 | 0.00 | 0.01 | 0.01 | 90 | 976.8 |
| 20260507093105 | 52 | 349 | 1.0 | 1.0 | 0.00 | 0.01 | 0.01 | 90 | 976.8 |
| 20260507092600 | 52 | 326 | 0.0 | 0.0 | 0.00 | 0.01 | 0.01 | 91 | 976.8 |
| 20260507092057 | 52 | 326 | 0.0 | 0.0 | 0.00 | 0.01 | 0.01 | 90 | 976.6 |
| 20260507091554 | 52 | 351 | 1.0 | 1.0 | 0.00 | 0.01 | 0.01 | 90 | 976.6 |
| 20260507091050 | 53 | 329 | 0.0 | 0.0 | 0.00 | 0.01 | 0.01 | 91 | 976.8 |
| 20260507090546 | 53 | 325 | 0.0 | 0.0 | 0.00 | 0.01 | 0.01 | 90 | 976.6 |
| 20260507090043 | 53 | 325 | 0.0 | 0.0 | 0.00 | 0.01 | 0.01 | 90 | 976.3 |
| 20260507085540 | 53 | 326 | 0.0 | 0.0 | 0.00 | 0.01 | 0.01 | 90 | 976.7 |
| 20260507085037 | 53 | 333 | 1.0 | 1.0 | 0.00 | 0.01 | 0.01 | 90 | 976.7 |
| 20260507084533 | 53 | 334 | 0.0 | 0.0 | 0.00 | 0.01 | 0.01 | 90 | 976.6 |
| 20260507084031 | 53 | 334 | 2.0 | 2.0 | 0.00 | 0.01 | 0.01 | 90 | 976.4 |
| 20260507083527 | 53 | 327 | 0.0 | 0.0 | 0.00 | 0.01 | 0.01 | 91 | 976.5 |
| 20260507083024 | 53 | 320 | 2.0 | 2.0 | 0.00 | 0.01 | 0.01 | 90 | 976.5 |
| 20260507082520 | 53 | 336 | 1.0 | 2.0 | 0.00 | 0.01 | 0.01 | 90 | 976.2 |
| 20260507082016 | 53 | 328 | 0.0 | 1.0 | 0.00 | 0.01 | 0.01 | 91 | 976.2 |
| 20260507081513 | 54 | 311 | 1.0 | 1.0 | 0.00 | 0.01 | 0.01 | 91 | 976.4 |
| 20260507081010 | 54 | 5 | 2.0 | 2.0 | 0.00 | 0.01 | 0.01 | 91 | 976.3 |
| 20260507080506 | 54 | 215 | 1.0 | 2.0 | 0.00 | 0.01 | 0.01 | 91 | 976.3 |
| 20260507080001 | 54 | 260 | 0.0 | 1.0 | 0.00 | 0.01 | 0.01 | 91 | 976.4 |
| 20260507075458 | 55 | 203 | 2.0 | 3.0 | 0.00 | 0.01 | 0.01 | 91 | 976.5 |
| 20260507074954 | 55 | 310 | 2.0 | 3.0 | 0.00 | 0.01 | 0.01 | 92 | 976.7 |
| 20260507074451 | 55 | 343 | 1.0 | 2.0 | 0.00 | 0.01 | 0.01 | 94 | 976.4 |
| 20260507073949 | 55 | 330 | 1.0 | 1.0 | 0.00 | 0.01 | 0.01 | 94 | 976.5 |
| 20260507073445 | 55 | 342 | 2.0 | 3.0 | 0.00 | 0.01 | 0.01 | 93 | 976.2 |
| 20260507072942 | 55 | 338 | 2.0 | 2.0 | 0.00 | 0.01 | 0.01 | 93 | 976.4 |
| 20260507072440 | 55 | 338 | 1.0 | 1.0 | 0.00 | 0.01 | 0.01 | 94 | 976.4 |
| 20260507071937 | 55 | 334 | 0.0 | 0.0 | 0.00 | 0.01 | 0.01 | 94 | 976.2 |
| 20260507071434 | 56 | 339 | 1.0 | 2.0 | 0.00 | 0.01 | 0.01 | 94 | 976.2 |
| 20260507070930 | 56 | 323 | 1.0 | 1.0 | 0.00 | 0.01 | 0.01 | 94 | 976.0 |
| 20260507070428 | 56 | 323 | 0.0 | 0.0 | 0.00 | 0.01 | 0.01 | 94 | 976.0 |
| 20260507065924 | 56 | 317 | 0.0 | 0.0 | 0.00 | 0.01 | 0.01 | 94 | 975.9 |
| 20260507065421 | 56 | 317 | 0.0 | 0.0 | 0.00 | 0.01 | 0.01 | 94 | 976.2 |
| 20260507064918 | 56 | 307 | 0.0 | 0.0 | 0.00 | 0.01 | 0.01 | 94 | 975.8 |
| 20260507064417 | 56 | 311 | 1.0 | 1.0 | 0.00 | 0.01 | 0.01 | 94 | 975.9 |
| 20260507063914 | 56 | 316 | 2.0 | 2.0 | 0.00 | 0.01 | 0.01 | 95 | 976.0 |
| 20260507063411 | 57 | 334 | 2.0 | 2.0 | 0.00 | 0.01 | 0.01 | 95 | 976.0 |
| 20260507062908 | 57 | 344 | 3.0 | 4.0 | 0.00 | 0.01 | 0.01 | 95 | 976.1 |
| 20260507062405 | 57 | 313 | 2.0 | 3.0 | 0.00 | 0.01 | 0.01 | 96 | 976.1 |
| 20260507061902 | 58 | 329 | 3.0 | 4.0 | 0.00 | 0.01 | 0.01 | 96 | 976.0 |
| 20260507061400 | 58 | 310 | 0.0 | 0.0 | 0.00 | 0.01 | 0.01 | 95 | 975.9 |
| 20260507060859 | 58 | 306 | 1.0 | 1.0 | 0.00 | 0.01 | 0.01 | 95 | 976.0 |
| 20260507060355 | 58 | 303 | 1.0 | 1.0 | 0.00 | 0.01 | 0.01 | 96 | 975.6 |
| 20260507055852 | 59 | 291 | 0.0 | 1.0 | 0.00 | 0.01 | 0.01 | 96 | 976.0 |
| 20260507055346 | 59 | 295 | 0.0 | 1.0 | 0.00 | 0.01 | 0.01 | 97 | 976.1 |
| 20260507054844 | 59 | 308 | 0.0 | 0.0 | 0.00 | 0.01 | 0.01 | 97 | 976.0 |
| 20260507054340 | 59 | 296 | 0.0 | 0.0 | 0.00 | 0.01 | 0.01 | 97 | 976.2 |
| 20260507053837 | 59 | 290 | 1.0 | 1.0 | 0.00 | 0.01 | 0.01 | 97 | 976.3 |
| 20260507053335 | 59 | 290 | 0.0 | 0.0 | 0.00 | 0.01 | 0.01 | 98 | 976.2 |
| 20260507052834 | 59 | 288 | 0.0 | 0.0 | 0.00 | 0.01 | 0.01 | 97 | 976.2 |
| 20260507052330 | 59 | 289 | 0.0 | 0.0 | 0.00 | 0.01 | 0.01 | 97 | 976.3 |
| 20260507051828 | 60 | 325 | 0.0 | 0.0 | 0.00 | 0.01 | 0.01 | 98 | 976.0 |
| 20260507051325 | 60 | 294 | 0.0 | 0.0 | 0.00 | 0.01 | 0.01 | 98 | 975.9 |
| 20260507050822 | 60 | 306 | 0.0 | 0.0 | 0.00 | 0.01 | 0.01 | 98 | 975.7 |
| 20260507050318 | 60 | 203 | 2.0 | 3.0 | 0.00 | 0.01 | 0.01 | 98 | 975.8 |
| 20260507045815 | 60 | 303 | 0.0 | 0.0 | 0.00 | 0.01 | 0.01 | 98 | 975.7 |
| 20260507045312 | 60 | 303 | 0.0 | 0.0 | 0.00 | 0.01 | 0.01 | 98 | 975.6 |
| 20260507044809 | 60 | 325 | 0.0 | 0.0 | 0.00 | 0.01 | 0.01 | 98 | 975.8 |
| 20260507044305 | 60 | 324 | 0.0 | 0.0 | 0.00 | 0.01 | 0.01 | 98 | 975.6 |
| 20260507043801 | 60 | 324 | 0.0 | 0.0 | 0.00 | 0.01 | 0.01 | 98 | 975.6 |
| 20260507043258 | 60 | 220 | 2.0 | 2.0 | 0.00 | 0.01 | 0.01 | 99 | 975.7 |
| 20260507042754 | 60 | 252 | 1.0 | 2.0 | 0.07 | 0.01 | 0.01 | 99 | 975.5 |
| 20260507042249 | 60 | 183 | 6.0 | 7.0 | 0.07 | 0.01 | 0.01 | 99 | 975.1 |
| 20260507041748 | 60 | 192 | 4.0 | 6.0 | 0.00 | 0.00 | 0.00 | 98 | 975.1 |
| 20260507041244 | 60 | 39 | 2.0 | 3.0 | 0.00 | 0.00 | 0.00 | 98 | 974.6 |
| 20260507040741 | 60 | 38 | 3.0 | 4.0 | 0.00 | 0.00 | 0.00 | 97 | 974.9 |
| 20260507040237 | 60 | 355 | 1.0 | 1.0 | 0.00 | 0.00 | 0.00 | 97 | 975.1 |
| 20260507035733 | 60 | 354 | 0.0 | 0.0 | 0.00 | 0.09 | 0.09 | 98 | 975.4 |
| 20260507035228 | 60 | 354 | 0.0 | 0.0 | 0.00 | 0.09 | 0.09 | 98 | 975.9 |
| 20260507034726 | 60 | 354 | 0.0 | 0.0 | 0.00 | 0.09 | 0.09 | 98 | 976.0 |
| 20260507034223 | 61 | 354 | 0.0 | 0.0 | 0.00 | 0.09 | 0.09 | 98 | 976.1 |
| 20260507033721 | 61 | 356 | 2.0 | 3.0 | 0.00 | 0.09 | 0.09 | 98 | 975.8 |
| 20260507033219 | 61 | 18 | 1.0 | 1.0 | 0.17 | 0.09 | 0.09 | 98 | 976.3 |
| 20260507032716 | 61 | 349 | 1.0 | 1.0 | 0.17 | 0.09 | 0.09 | 97 | 976.2 |
| 20260507032211 | 61 | 19 | 0.0 | 1.0 | 0.00 | 0.06 | 0.06 | 97 | 976.4 |
| 20260507031709 | 61 | 183 | 0.0 | 0.0 | 0.00 | 0.06 | 0.06 | 97 | 976.2 |
| 20260507031205 | 62 | 180 | 4.0 | 4.0 | 0.00 | 0.06 | 0.06 | 97 | 976.3 |
| 20260507030702 | 62 | 171 | 2.0 | 2.0 | 0.00 | 0.06 | 0.06 | 96 | 975.9 |
| 20260507030200 | 62 | 192 | 0.0 | 0.0 | 0.00 | 0.06 | 0.06 | 94 | 975.6 |
| 20260507025657 | 62 | 192 | 0.0 | 0.0 | 0.00 | 0.06 | 0.06 | 94 | 975.9 |
| 20260507025153 | 62 | 192 | 0.0 | 0.0 | 0.00 | 0.06 | 0.06 | 94 | 975.9 |
| 20260507024652 | 62 | 297 | 0.0 | 0.0 | 0.00 | 0.06 | 0.06 | 93 | 975.4 |
| 20260507024149 | 62 | 297 | 0.0 | 0.0 | 0.00 | 0.06 | 0.06 | 94 | 975.6 |
| 20260507023644 | 62 | 308 | 0.0 | 0.0 | 0.00 | 0.06 | 0.06 | 92 | 975.6 |